Knossos Palace — SYQO — position and weather

sailwx.info

Track history (hours):
 
Tides and Currents Weather Stations Pressure Air Temp Water Temp Dewpoint Dewpoint Depression Visibility Wind Speed Wind Dir Waves Ship Positions

Knossos Palace

Last reported at 2017-Aug-18 03:00 UTC. Time now 2017-Aug-18 03:05 UTC.
Position N 37°51' E 023°39'.

Length 214 m; beam 26.4 m; draft 7.3 m.

Type: Ship. MMSI: 237641000.

Date/timePositionNaut miles runAvg speedWind from/ knotsBaromVisibWave heightAir tempDewpointWater temp
2017-Aug-18 03:00N 37°51' E 023°39'1020.9
2017-Aug-18 02:30N 37°42' E 023°45'1121.3
2017-Aug-18 02:00N 37°32' E 023°50'99 3.9
2017-Aug-17 01:00N 36°00' E 024°36'10021.8 350 / 201005.510.8 26.021.025.0
2017-Aug-16 20:23N 37°32' E 023°46'821.7
2017-Aug-16 20:00N 37°40' E 023°42'1121.8
2017-Aug-16 19:31N 37°50' E 023°37'714.3
2017-Aug-16 19:01N 37°57' E 023°38'0 0.0
2017-Aug-16 18:31N 37°57' E 023°38'0 0.0
2017-Aug-16 17:58N 37°57' E 023°38'0 0.0
2017-Aug-16 17:28N 37°57' E 023°38'0 0.0
2017-Aug-16 16:58N 37°57' E 023°38'0 0.0
2017-Aug-16 16:28N 37°57' E 023°38'0 0.0
2017-Aug-16 15:58N 37°57' E 023°38'0 0.0
2017-Aug-16 15:28N 37°57' E 023°38'0 0.0
2017-Aug-16 14:58N 37°57' E 023°38'0 0.0
2017-Aug-16 14:28N 37°57' E 023°38'0 0.0
2017-Aug-16 13:58N 37°57' E 023°38'0 0.0
2017-Aug-16 13:28N 37°57' E 023°38'0 0.0
2017-Aug-16 12:58N 37°57' E 023°38'0 0.0
2017-Aug-16 12:28N 37°57' E 023°38'0 0.0
2017-Aug-16 11:58N 37°57' E 023°38'0 0.0
2017-Aug-16 11:28N 37°57' E 023°38'0 0.0
2017-Aug-16 10:58N 37°57' E 023°38'0 0.0
2017-Aug-16 10:28N 37°57' E 023°38'0 0.0
2017-Aug-16 09:58N 37°57' E 023°38'0 0.0
2017-Aug-16 09:28N 37°57' E 023°38'0 0.0
2017-Aug-16 08:58N 37°57' E 023°38'0 0.0
2017-Aug-16 08:28N 37°57' E 023°38'0 0.0
2017-Aug-16 07:58N 37°57' E 023°38'0 0.0
2017-Aug-16 07:28N 37°57' E 023°38'0 0.0
2017-Aug-16 06:58N 37°57' E 023°38'0 0.0
2017-Aug-16 06:28N 37°57' E 023°38'0 0.0
2017-Aug-16 05:58N 37°57' E 023°38'0 0.0
2017-Aug-16 05:28N 37°57' E 023°38'0 0.0
2017-Aug-16 04:58N 37°57' E 023°38'0 0.0
2017-Aug-16 04:28N 37°57' E 023°38'0 0.0
2017-Aug-16 03:58N 37°57' E 023°38'0 0.3
2017-Aug-16 03:31N 37°56' E 023°38'612.1
2017-Aug-16 03:01N 37°51' E 023°40'1121.5
2017-Aug-16 02:31N 37°41' E 023°45'1121.4
2017-Aug-16 02:01N 37°31' E 023°51'1121.5
2017-Aug-16 01:30N 37°21' E 023°55'14 0.5
2017-Aug-14 20:33N 37°32' E 023°46'121.3
2017-Aug-14 20:31N 37°33' E 023°46'1121.3
2017-Aug-14 20:01N 37°43' E 023°41'1020.9
2017-Aug-14 19:31N 37°53' E 023°37'4 7.8
2017-Aug-14 19:01N 37°57' E 023°38'0 0.0
2017-Aug-14 18:30N 37°57' E 023°38'0 0.0
2017-Aug-14 17:59N 37°57' E 023°38'0 0.0
2017-Aug-14 17:26N 37°57' E 023°38'0 0.0
2017-Aug-14 16:59N 37°57' E 023°38'0 0.0
2017-Aug-14 16:26N 37°57' E 023°38'0 0.0
2017-Aug-14 15:56N 37°57' E 023°38'0 0.0
2017-Aug-14 15:26N 37°57' E 023°38'0 0.0
2017-Aug-14 14:59N 37°57' E 023°38'0 0.0
2017-Aug-14 14:29N 37°57' E 023°38'0 0.0
2017-Aug-14 13:59N 37°57' E 023°38'0 0.0
2017-Aug-14 13:29N 37°57' E 023°38'0 0.0
2017-Aug-14 12:56N 37°57' E 023°38'0 0.0
2017-Aug-14 12:29N 37°57' E 023°38'0 0.0
2017-Aug-14 11:59N 37°57' E 023°38'0 0.0
2017-Aug-14 11:29N 37°57' E 023°38'0 0.0
2017-Aug-14 10:59N 37°57' E 023°38'0 0.0
2017-Aug-14 10:29N 37°57' E 023°38'0 0.0
2017-Aug-14 09:59N 37°57' E 023°38'0 0.0
2017-Aug-14 09:26N 37°57' E 023°38'0 0.0
2017-Aug-14 08:59N 37°57' E 023°38'0 0.0
2017-Aug-14 08:29N 37°57' E 023°38'0 0.0
2017-Aug-14 07:59N 37°57' E 023°38'0 0.0
2017-Aug-14 07:29N 37°57' E 023°38'0 0.0
2017-Aug-14 06:59N 37°57' E 023°38'0 0.0
2017-Aug-14 06:29N 37°57' E 023°38'0 0.0
2017-Aug-14 05:59N 37°57' E 023°38'0 0.0
2017-Aug-14 05:29N 37°57' E 023°38'0 0.0
2017-Aug-14 04:59N 37°57' E 023°38'0 0.0
2017-Aug-14 04:29N 37°57' E 023°38'0 0.0
2017-Aug-14 03:59N 37°57' E 023°38'2 4.1
2017-Aug-14 03:30N 37°55' E 023°37'918.5
2017-Aug-14 03:01N 37°47' E 023°43'1120.9
2017-Aug-14 02:30N 37°37' E 023°47'107 4.2
2017-Aug-13 01:07N 35°60' E 024°43'322.1
2017-Aug-13 01:00N 36°02' E 024°42'6022.1
2017-Aug-12 22:17N 36°55' E 024°06'621.6
2017-Aug-12 22:00N 37°00' E 024°03'1121.4
2017-Aug-12 21:30N 37°10' E 023°58'1121.4
2017-Aug-12 21:00N 37°20' E 023°53'1121.2
2017-Aug-12 20:30N 37°30' E 023°47'1121.3
2017-Aug-12 20:00N 37°39' E 023°42'1121.0
2017-Aug-12 19:30N 37°49' E 023°38'714.3
2017-Aug-12 19:01N 37°57' E 023°38'0 0.0
2017-Aug-12 18:31N 37°57' E 023°38'0 0.0
2017-Aug-12 18:00N 37°57' E 023°38'0 0.0
2017-Aug-12 17:30N 37°57' E 023°38'0 0.0
2017-Aug-12 17:00N 37°57' E 023°38'0 0.0
2017-Aug-12 16:30N 37°57' E 023°38'0 0.0
2017-Aug-12 16:00N 37°57' E 023°38'0 0.0
2017-Aug-12 15:31N 37°57' E 023°38'3 6.4
2017-Aug-12 15:01N 37°53' E 023°38'1224.6
2017-Aug-12 14:31N 37°42' E 023°45'1325.2
2017-Aug-12 14:01N 37°31' E 023°50'1325.5
2017-Aug-12 13:31N 37°18' E 023°55'1925.1
2017-Aug-12 12:46N 37°01' E 024°03'84 7.7
2017-Aug-12 01:51N 35°47' E 024°52'821.6
2017-Aug-12 01:29N 35°54' E 024°47'1022.1
2017-Aug-12 01:01N 36°03' E 024°40'9521.9
2017-Aug-11 20:41N 37°28' E 023°48'422.1
2017-Aug-11 20:31N 37°31' E 023°46'1122.2
2017-Aug-11 20:01N 37°42' E 023°41'1122.2
2017-Aug-11 19:31N 37°52' E 023°37'4 8.6
2017-Aug-11 19:00N 37°57' E 023°38'0 0.0
2017-Aug-11 18:30N 37°57' E 023°38'0 0.0
2017-Aug-11 17:58N 37°57' E 023°38'0 0.0
2017-Aug-11 17:28N 37°57' E 023°38'0 0.0
2017-Aug-11 16:58N 37°57' E 023°38'0 0.0
2017-Aug-11 16:28N 37°57' E 023°38'0 0.0
2017-Aug-11 15:58N 37°57' E 023°38'0 0.0
2017-Aug-11 15:30N 37°57' E 023°38'3 6.8
2017-Aug-11 15:01N 37°53' E 023°38'2524.9
2017-Aug-11 14:00N 37°30' E 023°50'4 0.2
2017-Aug-10 20:40N 37°32' E 023°46'522.0
2017-Aug-10 20:27N 37°36' E 023°44'1022.3
2017-Aug-10 20:01N 37°46' E 023°39'1020.5
2017-Aug-10 19:30N 37°56' E 023°37'1 2.5
2017-Aug-10 19:00N 37°57' E 023°38'0 0.0
2017-Aug-10 18:30N 37°57' E 023°38'0 0.0
2017-Aug-10 18:00N 37°57' E 023°38'0 0.0
2017-Aug-10 17:30N 37°57' E 023°38'0 0.0
2017-Aug-10 17:00N 37°57' E 023°38'0 0.0
2017-Aug-10 16:30N 37°57' E 023°38'0 0.0
2017-Aug-10 16:00N 37°57' E 023°38'0 0.0
2017-Aug-10 15:30N 37°57' E 023°38'0 0.0
2017-Aug-10 15:00N 37°57' E 023°38'0 0.0
2017-Aug-10 14:27N 37°57' E 023°38'0 0.0
2017-Aug-10 14:00N 37°57' E 023°38'0 0.0
2017-Aug-10 13:30N 37°57' E 023°38'0 0.0
2017-Aug-10 13:00N 37°57' E 023°38'0 0.0
2017-Aug-10 12:30N 37°57' E 023°38'0 0.0
2017-Aug-10 12:00N 37°57' E 023°38'0 0.0
2017-Aug-10 11:30N 37°57' E 023°38'0 0.0
2017-Aug-10 11:00N 37°57' E 023°38'0 0.0
2017-Aug-10 10:30N 37°57' E 023°38'0 0.0
2017-Aug-10 10:00N 37°57' E 023°38'0 0.0
2017-Aug-10 09:30N 37°57' E 023°38'0 0.0
2017-Aug-10 09:00N 37°57' E 023°38'0 0.0
2017-Aug-10 08:30N 37°57' E 023°38'0 0.0
2017-Aug-10 08:00N 37°57' E 023°38'0 0.0
2017-Aug-10 07:30N 37°57' E 023°38'0 0.0
2017-Aug-10 07:00N 37°57' E 023°38'0 0.0
2017-Aug-10 06:30N 37°57' E 023°38'0 0.0
2017-Aug-10 06:00N 37°57' E 023°38'0 0.0
2017-Aug-10 05:30N 37°57' E 023°38'0 0.0
2017-Aug-10 05:00N 37°57' E 023°38'0 0.0
2017-Aug-10 04:30N 37°57' E 023°38'0 0.0
2017-Aug-10 04:00N 37°57' E 023°38'1 2.7
2017-Aug-10 03:30N 37°56' E 023°37'713.4
2017-Aug-10 03:01N 37°50' E 023°40'1121.0
2017-Aug-10 02:30N 37°40' E 023°46'1121.6
2017-Aug-10 02:00N 37°30' E 023°50'6 0.2
2017-Aug-08 20:30N 37°34' E 023°45'1122.3
2017-Aug-08 20:00N 37°45' E 023°40'1121.7
2017-Aug-08 19:30N 37°55' E 023°37'2 3.2
2017-Aug-08 19:01N 37°57' E 023°38'0 0.0
2017-Aug-08 18:30N 37°57' E 023°38'0 0.0
2017-Aug-08 17:58N 37°57' E 023°38'0 0.0
2017-Aug-08 17:28N 37°57' E 023°38'0 0.0
2017-Aug-08 16:55N 37°57' E 023°38'0 0.0
2017-Aug-08 16:28N 37°57' E 023°38'0 0.0
2017-Aug-08 15:58N 37°57' E 023°38'0 0.0
2017-Aug-08 15:28N 37°57' E 023°38'0 0.0
2017-Aug-08 14:55N 37°57' E 023°38'0 0.0
2017-Aug-08 14:28N 37°57' E 023°38'0 0.0
2017-Aug-08 13:58N 37°57' E 023°38'0 0.0
2017-Aug-08 13:28N 37°57' E 023°38'0 0.0
2017-Aug-08 12:58N 37°57' E 023°38'0 0.0
2017-Aug-08 12:28N 37°57' E 023°38'0 0.0
2017-Aug-08 11:52N 37°57' E 023°38'0 0.0
2017-Aug-08 11:28N 37°57' E 023°38'0 0.0
2017-Aug-08 10:58N 37°57' E 023°38'0 0.0
2017-Aug-08 10:28N 37°57' E 023°38'0 0.0
2017-Aug-08 09:58N 37°57' E 023°38'0 0.0
2017-Aug-08 09:30N 37°57' E 023°38'0 0.0
2017-Aug-08 08:58N 37°57' E 023°38'0 0.0
2017-Aug-08 08:28N 37°57' E 023°38'0 0.0
2017-Aug-08 07:58N 37°57' E 023°38'0 0.0
2017-Aug-08 07:28N 37°57' E 023°38'0 0.0
2017-Aug-08 06:58N 37°57' E 023°38'0 0.0
2017-Aug-08 06:28N 37°57' E 023°38'0 0.0
2017-Aug-08 05:58N 37°57' E 023°38'0 0.0
2017-Aug-08 05:28N 37°57' E 023°38'0 0.0
2017-Aug-08 04:58N 37°57' E 023°38'0 0.0
2017-Aug-08 04:28N 37°57' E 023°38'0 0.0
2017-Aug-08 03:58N 37°57' E 023°38'0 0.2
2017-Aug-08 03:30N 37°57' E 023°38'5 9.1
2017-Aug-08 03:00N 37°52' E 023°39'  
Track history (hours):
 
Tides and Currents Weather Stations Pressure Air Temp Water Temp Dewpoint Dewpoint Depression Visibility Wind Speed Wind Dir Waves Ship Positions

Knossos Palace

Last reported at 2017-Aug-18 03:00 UTC. Time now 2017-Aug-18 03:05 UTC.
Position N 37°51' E 023°39'.

Length 214 m; beam 26.4 m; draft 7.3 m.

Type: Ship. MMSI: 237641000.

Date/timePositionNaut miles runAvg speedWind from/ knotsBaromVisibWave heightAir tempDewpointWater temp
2017-Aug-18 03:00N 37°51' E 023°39'1020.9
2017-Aug-18 02:30N 37°42' E 023°45'1121.3
2017-Aug-18 02:00N 37°32' E 023°50'99 3.9
2017-Aug-17 01:00N 36°00' E 024°36'10021.8 350 / 201005.510.8 26.021.025.0
2017-Aug-16 20:23N 37°32' E 023°46'821.7
2017-Aug-16 20:00N 37°40' E 023°42'1121.8
2017-Aug-16 19:31N 37°50' E 023°37'714.3
2017-Aug-16 19:01N 37°57' E 023°38'0 0.0
2017-Aug-16 18:31N 37°57' E 023°38'0 0.0
2017-Aug-16 17:58N 37°57' E 023°38'0 0.0
2017-Aug-16 17:28N 37°57' E 023°38'0 0.0
2017-Aug-16 16:58N 37°57' E 023°38'0 0.0
2017-Aug-16 16:28N 37°57' E 023°38'0 0.0
2017-Aug-16 15:58N 37°57' E 023°38'0 0.0
2017-Aug-16 15:28N 37°57' E 023°38'0 0.0
2017-Aug-16 14:58N 37°57' E 023°38'0 0.0
2017-Aug-16 14:28N 37°57' E 023°38'0 0.0
2017-Aug-16 13:58N 37°57' E 023°38'0 0.0
2017-Aug-16 13:28N 37°57' E 023°38'0 0.0
2017-Aug-16 12:58N 37°57' E 023°38'0 0.0
2017-Aug-16 12:28N 37°57' E 023°38'0 0.0
2017-Aug-16 11:58N 37°57' E 023°38'0 0.0
2017-Aug-16 11:28N 37°57' E 023°38'0 0.0
2017-Aug-16 10:58N 37°57' E 023°38'0 0.0
2017-Aug-16 10:28N 37°57' E 023°38'0 0.0
2017-Aug-16 09:58N 37°57' E 023°38'0 0.0
2017-Aug-16 09:28N 37°57' E 023°38'0 0.0
2017-Aug-16 08:58N 37°57' E 023°38'0 0.0
2017-Aug-16 08:28N 37°57' E 023°38'0 0.0
2017-Aug-16 07:58N 37°57' E 023°38'0 0.0
2017-Aug-16 07:28N 37°57' E 023°38'0 0.0
2017-Aug-16 06:58N 37°57' E 023°38'0 0.0
2017-Aug-16 06:28N 37°57' E 023°38'0 0.0
2017-Aug-16 05:58N 37°57' E 023°38'0 0.0
2017-Aug-16 05:28N 37°57' E 023°38'0 0.0
2017-Aug-16 04:58N 37°57' E 023°38'0 0.0
2017-Aug-16 04:28N 37°57' E 023°38'0 0.0
2017-Aug-16 03:58N 37°57' E 023°38'0 0.3
2017-Aug-16 03:31N 37°56' E 023°38'612.1
2017-Aug-16 03:01N 37°51' E 023°40'1121.5
2017-Aug-16 02:31N 37°41' E 023°45'1121.4
2017-Aug-16 02:01N 37°31' E 023°51'1121.5
2017-Aug-16 01:30N 37°21' E 023°55'14 0.5
2017-Aug-14 20:33N 37°32' E 023°46'121.3
2017-Aug-14 20:31N 37°33' E 023°46'1121.3
2017-Aug-14 20:01N 37°43' E 023°41'1020.9
2017-Aug-14 19:31N 37°53' E 023°37'4 7.8
2017-Aug-14 19:01N 37°57' E 023°38'0 0.0
2017-Aug-14 18:30N 37°57' E 023°38'0 0.0
2017-Aug-14 17:59N 37°57' E 023°38'0 0.0
2017-Aug-14 17:26N 37°57' E 023°38'0 0.0
2017-Aug-14 16:59N 37°57' E 023°38'0 0.0
2017-Aug-14 16:26N 37°57' E 023°38'0 0.0
2017-Aug-14 15:56N 37°57' E 023°38'0 0.0
2017-Aug-14 15:26N 37°57' E 023°38'0 0.0
2017-Aug-14 14:59N 37°57' E 023°38'0 0.0
2017-Aug-14 14:29N 37°57' E 023°38'0 0.0
2017-Aug-14 13:59N 37°57' E 023°38'0 0.0
2017-Aug-14 13:29N 37°57' E 023°38'0 0.0
2017-Aug-14 12:56N 37°57' E 023°38'0 0.0
2017-Aug-14 12:29N 37°57' E 023°38'0 0.0
2017-Aug-14 11:59N 37°57' E 023°38'0 0.0
2017-Aug-14 11:29N 37°57' E 023°38'0 0.0
2017-Aug-14 10:59N 37°57' E 023°38'0 0.0
2017-Aug-14 10:29N 37°57' E 023°38'0 0.0
2017-Aug-14 09:59N 37°57' E 023°38'0 0.0
2017-Aug-14 09:26N 37°57' E 023°38'0 0.0
2017-Aug-14 08:59N 37°57' E 023°38'0 0.0
2017-Aug-14 08:29N 37°57' E 023°38'0 0.0
2017-Aug-14 07:59N 37°57' E 023°38'0 0.0
2017-Aug-14 07:29N 37°57' E 023°38'0 0.0
2017-Aug-14 06:59N 37°57' E 023°38'0 0.0
2017-Aug-14 06:29N 37°57' E 023°38'0 0.0
2017-Aug-14 05:59N 37°57' E 023°38'0 0.0
2017-Aug-14 05:29N 37°57' E 023°38'0 0.0
2017-Aug-14 04:59N 37°57' E 023°38'0 0.0
2017-Aug-14 04:29N 37°57' E 023°38'0 0.0
2017-Aug-14 03:59N 37°57' E 023°38'2 4.1
2017-Aug-14 03:30N 37°55' E 023°37'918.5
2017-Aug-14 03:01N 37°47' E 023°43'1120.9
2017-Aug-14 02:30N 37°37' E 023°47'107 4.2
2017-Aug-13 01:07N 35°60' E 024°43'322.1
2017-Aug-13 01:00N 36°02' E 024°42'6022.1
2017-Aug-12 22:17N 36°55' E 024°06'621.6
2017-Aug-12 22:00N 37°00' E 024°03'1121.4
2017-Aug-12 21:30N 37°10' E 023°58'1121.4
2017-Aug-12 21:00N 37°20' E 023°53'1121.2
2017-Aug-12 20:30N 37°30' E 023°47'1121.3
2017-Aug-12 20:00N 37°39' E 023°42'1121.0
2017-Aug-12 19:30N 37°49' E 023°38'714.3
2017-Aug-12 19:01N 37°57' E 023°38'0 0.0
2017-Aug-12 18:31N 37°57' E 023°38'0 0.0
2017-Aug-12 18:00N 37°57' E 023°38'0 0.0
2017-Aug-12 17:30N 37°57' E 023°38'0 0.0
2017-Aug-12 17:00N 37°57' E 023°38'0 0.0
2017-Aug-12 16:30N 37°57' E 023°38'0 0.0
2017-Aug-12 16:00N 37°57' E 023°38'0 0.0
2017-Aug-12 15:31N 37°57' E 023°38'3 6.4
2017-Aug-12 15:01N 37°53' E 023°38'1224.6
2017-Aug-12 14:31N 37°42' E 023°45'1325.2
2017-Aug-12 14:01N 37°31' E 023°50'1325.5
2017-Aug-12 13:31N 37°18' E 023°55'1925.1
2017-Aug-12 12:46N 37°01' E 024°03'84 7.7
2017-Aug-12 01:51N 35°47' E 024°52'821.6
2017-Aug-12 01:29N 35°54' E 024°47'1022.1
2017-Aug-12 01:01N 36°03' E 024°40'9521.9
2017-Aug-11 20:41N 37°28' E 023°48'422.1
2017-Aug-11 20:31N 37°31' E 023°46'1122.2
2017-Aug-11 20:01N 37°42' E 023°41'1122.2
2017-Aug-11 19:31N 37°52' E 023°37'4 8.6
2017-Aug-11 19:00N 37°57' E 023°38'0 0.0
2017-Aug-11 18:30N 37°57' E 023°38'0 0.0
2017-Aug-11 17:58N 37°57' E 023°38'0 0.0
2017-Aug-11 17:28N 37°57' E 023°38'0 0.0
2017-Aug-11 16:58N 37°57' E 023°38'0 0.0
2017-Aug-11 16:28N 37°57' E 023°38'0 0.0
2017-Aug-11 15:58N 37°57' E 023°38'0 0.0
2017-Aug-11 15:30N 37°57' E 023°38'3 6.8
2017-Aug-11 15:01N 37°53' E 023°38'2524.9
2017-Aug-11 14:00N 37°30' E 023°50'4 0.2
2017-Aug-10 20:40N 37°32' E 023°46'522.0
2017-Aug-10 20:27N 37°36' E 023°44'1022.3
2017-Aug-10 20:01N 37°46' E 023°39'1020.5
2017-Aug-10 19:30N 37°56' E 023°37'1 2.5
2017-Aug-10 19:00N 37°57' E 023°38'0 0.0
2017-Aug-10 18:30N 37°57' E 023°38'0 0.0
2017-Aug-10 18:00N 37°57' E 023°38'0 0.0
2017-Aug-10 17:30N 37°57' E 023°38'0 0.0
2017-Aug-10 17:00N 37°57' E 023°38'0 0.0
2017-Aug-10 16:30N 37°57' E 023°38'0 0.0
2017-Aug-10 16:00N 37°57' E 023°38'0 0.0
2017-Aug-10 15:30N 37°57' E 023°38'0 0.0
2017-Aug-10 15:00N 37°57' E 023°38'0 0.0
2017-Aug-10 14:27N 37°57' E 023°38'0 0.0
2017-Aug-10 14:00N 37°57' E 023°38'0 0.0
2017-Aug-10 13:30N 37°57' E 023°38'0 0.0
2017-Aug-10 13:00N 37°57' E 023°38'0 0.0
2017-Aug-10 12:30N 37°57' E 023°38'0 0.0
2017-Aug-10 12:00N 37°57' E 023°38'0 0.0
2017-Aug-10 11:30N 37°57' E 023°38'0 0.0
2017-Aug-10 11:00N 37°57' E 023°38'0 0.0
2017-Aug-10 10:30N 37°57' E 023°38'0 0.0
2017-Aug-10 10:00N 37°57' E 023°38'0 0.0
2017-Aug-10 09:30N 37°57' E 023°38'0 0.0
2017-Aug-10 09:00N 37°57' E 023°38'0 0.0
2017-Aug-10 08:30N 37°57' E 023°38'0 0.0
2017-Aug-10 08:00N 37°57' E 023°38'0 0.0
2017-Aug-10 07:30N 37°57' E 023°38'0 0.0
2017-Aug-10 07:00N 37°57' E 023°38'0 0.0
2017-Aug-10 06:30N 37°57' E 023°38'0 0.0
2017-Aug-10 06:00N 37°57' E 023°38'0 0.0
2017-Aug-10 05:30N 37°57' E 023°38'0 0.0
2017-Aug-10 05:00N 37°57' E 023°38'0 0.0
2017-Aug-10 04:30N 37°57' E 023°38'0 0.0
2017-Aug-10 04:00N 37°57' E 023°38'1 2.7
2017-Aug-10 03:30N 37°56' E 023°37'713.4
2017-Aug-10 03:01N 37°50' E 023°40'1121.0
2017-Aug-10 02:30N 37°40' E 023°46'1121.6
2017-Aug-10 02:00N 37°30' E 023°50'6 0.2
2017-Aug-08 20:30N 37°34' E 023°45'1122.3
2017-Aug-08 20:00N 37°45' E 023°40'1121.7
2017-Aug-08 19:30N 37°55' E 023°37'2 3.2
2017-Aug-08 19:01N 37°57' E 023°38'0 0.0
2017-Aug-08 18:30N 37°57' E 023°38'0 0.0
2017-Aug-08 17:58N 37°57' E 023°38'0 0.0
2017-Aug-08 17:28N 37°57' E 023°38'0 0.0
2017-Aug-08 16:55N 37°57' E 023°38'0 0.0
2017-Aug-08 16:28N 37°57' E 023°38'0 0.0
2017-Aug-08 15:58N 37°57' E 023°38'0 0.0
2017-Aug-08 15:28N 37°57' E 023°38'0 0.0
2017-Aug-08 14:55N 37°57' E 023°38'0 0.0
2017-Aug-08 14:28N 37°57' E 023°38'0 0.0
2017-Aug-08 13:58N 37°57' E 023°38'0 0.0
2017-Aug-08 13:28N 37°57' E 023°38'0 0.0
2017-Aug-08 12:58N 37°57' E 023°38'0 0.0
2017-Aug-08 12:28N 37°57' E 023°38'0 0.0
2017-Aug-08 11:52N 37°57' E 023°38'0 0.0
2017-Aug-08 11:28N 37°57' E 023°38'0 0.0
2017-Aug-08 10:58N 37°57' E 023°38'0 0.0
2017-Aug-08 10:28N 37°57' E 023°38'0 0.0
2017-Aug-08 09:58N 37°57' E 023°38'0 0.0
2017-Aug-08 09:30N 37°57' E 023°38'0 0.0
2017-Aug-08 08:58N 37°57' E 023°38'0 0.0
2017-Aug-08 08:28N 37°57' E 023°38'0 0.0
2017-Aug-08 07:58N 37°57' E 023°38'0 0.0
2017-Aug-08 07:28N 37°57' E 023°38'0 0.0
2017-Aug-08 06:58N 37°57' E 023°38'0 0.0
2017-Aug-08 06:28N 37°57' E 023°38'0 0.0
2017-Aug-08 05:58N 37°57' E 023°38'0 0.0
2017-Aug-08 05:28N 37°57' E 023°38'0 0.0
2017-Aug-08 04:58N 37°57' E 023°38'0 0.0
2017-Aug-08 04:28N 37°57' E 023°38'0 0.0
2017-Aug-08 03:58N 37°57' E 023°38'0 0.2
2017-Aug-08 03:30N 37°57' E 023°38'5 9.1
2017-Aug-08 03:00N 37°52' E 023°39'  

Dump ship's entire track history